Time;durP1;ratioP1;P1;durP2;ratioP2;P2;SDS_P1;SDS_P2;PMS_P1;PMS_P2;Temp;Humidity;BMP_temperature;BMP_pressure;BME280_temperature;BME280_humidity;BME280_pressure;Samples;Min_cycle;Max_cycle;Signal;HPM_P1;HPM_P2
2022/05/20 00:00:43;;;;;;;6.70;5.78;;;;;;;21.35;65.25;97700.38;4917652;28;20612;-79
2022/05/20 00:03:09;;;;;;;6.72;5.90;;;;;;;21.38;65.38;97707.72;4917230;28;20279;-79
2022/05/20 00:05:36;;;;;;;6.13;5.53;;;;;;;21.39;64.98;97700.56;4929699;28;20261;-80
2022/05/20 00:08:02;;;;;;;6.25;5.65;;;;;;;21.40;65.08;97687.00;4929949;28;20251;-80
2022/05/20 00:10:28;;;;;;;6.90;5.70;;;;;;;21.41;64.92;97683.28;4929453;28;20249;-80
2022/05/20 00:12:54;;;;;;;5.65;5.15;;;;;;;21.40;64.87;97681.72;4897604;28;20263;-79
2022/05/20 00:15:22;;;;;;;5.82;5.25;;;;;;;21.38;64.62;97678.59;4911429;28;20235;-80
2022/05/20 00:17:48;;;;;;;7.05;5.40;;;;;;;21.38;64.73;97670.63;4895508;28;20554;-80
2022/05/20 00:20:27;;;;;;;5.47;4.97;;;;;;;21.35;64.79;97667.81;4886860;28;20202;-80
2022/05/20 00:22:53;;;;;;;5.80;5.22;;;;;;;21.37;64.73;97666.44;4910121;28;20647;-80
2022/05/20 00:28:04;;;;;;;6.93;6.22;;;;;;;21.32;65.33;97664.69;4912513;28;20218;-80
2022/05/20 00:30:30;;;;;;;6.47;5.88;;;;;;;21.29;65.14;97667.16;4910118;28;20580;-80
2022/05/20 00:32:55;;;;;;;7.93;5.97;;;;;;;21.27;65.10;97666.69;4909463;28;20293;-80
2022/05/20 00:35:22;;;;;;;6.28;5.68;;;;;;;21.28;65.39;97670.88;4925905;28;20266;-80
2022/05/20 00:37:48;;;;;;;6.60;5.93;;;;;;;21.30;65.37;97677.47;4893537;28;20249;-80
2022/05/20 00:40:15;;;;;;;6.82;6.10;;;;;;;21.23;65.30;97671.00;4909486;28;20218;-80
2022/05/20 00:42:41;;;;;;;5.88;5.13;;;;;;;21.28;65.24;97678.81;4925365;28;20197;-80
2022/05/20 00:45:07;;;;;;;7.38;5.88;;;;;;;21.24;65.30;97668.06;4909083;28;20656;-80
2022/05/20 00:47:33;;;;;;;6.75;5.95;;;;;;;21.27;65.28;97683.34;4927151;28;20290;-80
2022/05/20 00:50:02;;;;;;;7.25;6.60;;;;;;;21.18;65.43;97679.06;4892907;28;20285;-80
2022/05/20 00:52:31;;;;;;;6.70;6.10;;;;;;;21.14;65.48;97673.59;4893487;28;20273;-81
2022/05/20 00:54:59;;;;;;;8.00;7.03;;;;;;;21.10;65.97;97673.41;4884290;28;20159;-81
2022/05/20 00:57:30;;;;;;;9.32;6.50;;;;;;;21.05;66.08;97672.75;4893005;28;20249;-80
2022/05/20 01:00:03;;;;;;;7.93;7.13;;;;;;;21.08;66.00;97664.22;4877515;28;20206;-80
2022/05/20 01:02:31;;;;;;;8.63;7.47;;;;;;;20.89;66.13;97662.53;4908425;28;20234;-80
2022/05/20 01:05:00;;;;;;;8.93;8.02;;;;;;;20.90;66.27;97660.66;4889880;28;20332;-80
2022/05/20 01:07:26;;;;;;;9.55;8.65;;;;;;;20.93;66.26;97657.41;4890525;28;20353;-80
2022/05/20 01:09:52;;;;;;;9.25;7.53;;;;;;;21.04;66.22;97648.16;4890101;28;20195;-80
2022/05/20 01:12:17;;;;;;;7.65;6.85;;;;;;;21.06;65.94;97645.97;4874531;28;20218;-80
2022/05/20 01:14:43;;;;;;;7.20;6.50;;;;;;;21.08;65.60;97648.34;4880688;28;20133;-80
2022/05/20 01:17:08;;;;;;;8.68;7.78;;;;;;;21.03;65.83;97649.22;4911419;28;20594;-80
2022/05/20 01:19:36;;;;;;;8.50;7.70;;;;;;;20.94;65.79;97648.41;4893823;28;20372;-80
2022/05/20 01:22:06;;;;;;;9.18;7.15;;;;;;;20.84;66.06;97648.63;4892631;28;20280;-79
2022/05/20 01:24:32;;;;;;;10.68;9.10;;;;;;;20.91;66.23;97651.63;4908594;28;20183;-80
2022/05/20 01:26:57;;;;;;;8.25;7.45;;;;;;;20.90;66.22;97647.41;4892612;28;20241;-80
2022/05/20 01:29:22;;;;;;;8.10;7.30;;;;;;;20.92;66.31;97646.03;4893064;28;20343;-81
2022/05/20 01:31:48;;;;;;;8.40;7.60;;;;;;;20.97;65.96;97645.13;4909009;28;20206;-80
2022/05/20 01:34:13;;;;;;;8.23;6.88;;;;;;;20.94;65.79;97629.88;4892925;28;20246;-80
2022/05/20 01:36:39;;;;;;;8.93;8.02;;;;;;;20.90;65.68;97636.81;4893058;28;20194;-80
2022/05/20 01:39:04;;;;;;;7.95;7.25;;;;;;;20.86;66.00;97641.94;4909165;28;20615;-81
2022/05/20 01:41:40;;;;;;;7.65;6.82;;;;;;;20.71;66.15;97656.28;4909136;28;20233;-81
2022/05/20 01:44:05;;;;;;;9.23;7.68;;;;;;;20.93;65.74;97665.34;4908559;28;20265;-81
2022/05/20 01:46:38;;;;;;;19.60;9.60;;;;;;;20.80;65.91;97652.94;4908318;28;20299;-81
2022/05/20 01:49:07;;;;;;;12.07;8.60;;;;;;;20.84;66.51;97651.28;4892747;28;20103;-79
2022/05/20 01:51:40;;;;;;;10.15;9.02;;;;;;;20.68;66.69;97656.09;4909145;28;20280;-80
2022/05/20 01:54:20;;;;;;;15.02;10.50;;;;;;;20.63;66.78;97653.56;4893080;28;20183;-79
2022/05/20 01:56:49;;;;;;;11.63;8.77;;;;;;;20.71;66.43;97655.50;4910117;28;20357;-80
2022/05/20 01:59:17;;;;;;;9.88;8.75;;;;;;;20.82;66.66;97666.66;4892794;28;20197;-80
2022/05/20 02:01:53;;;;;;;9.80;8.85;;;;;;;20.74;66.91;97666.28;4892852;28;20199;-80
2022/05/20 02:04:24;;;;;;;11.63;9.15;;;;;;;20.76;66.69;97664.13;4890920;28;20297;-79
2022/05/20 02:06:53;;;;;;;11.30;9.95;;;;;;;20.70;66.96;97661.88;4890915;28;20211;-79
2022/05/20 02:09:33;;;;;;;11.45;10.25;;;;;;;20.59;67.59;97658.66;4907110;28;20222;-79
2022/05/20 02:11:59;;;;;;;11.30;10.18;;;;;;;20.86;66.93;97651.75;4891060;28;20671;-80
2022/05/20 02:14:57;;;;;;;13.25;11.20;;;;;;;20.77;67.11;97660.41;4906483;28;20285;-79
2022/05/20 02:17:52;;;;;;;11.73;10.52;;;;;;;20.71;67.25;97656.28;4901402;28;20270;-79
2022/05/20 02:20:21;;;;;;;15.70;13.43;;;;;;;20.85;66.80;97653.59;4905178;28;20206;-79
2022/05/20 02:22:52;;;;;;;16.30;14.40;;;;;;;20.82;66.95;97648.13;4890697;28;20287;-79
2022/05/20 02:25:23;;;;;;;18.30;13.77;;;;;;;20.84;66.93;97654.69;4891162;28;20206;-79
2022/05/20 02:27:52;;;;;;;17.08;14.05;;;;;;;20.77;67.00;97665.69;4891487;28;20199;-79
2022/05/20 02:30:20;;;;;;;15.77;14.15;;;;;;;20.76;67.08;97653.53;4894143;28;20251;-79
2022/05/20 02:32:58;;;;;;;14.43;12.93;;;;;;;20.70;67.29;97657.38;4895259;28;20357;-79
2022/05/20 02:35:24;;;;;;;15.98;14.27;;;;;;;20.86;67.11;97651.75;4897649;28;20217;-79
2022/05/20 02:37:50;;;;;;;16.83;15.13;;;;;;;20.86;66.71;97646.47;4882024;28;20508;-79
2022/05/20 02:40:18;;;;;;;15.48;13.82;;;;;;;20.84;66.71;97653.91;4897203;28;20197;-79
2022/05/20 02:42:43;;;;;;;16.15;13.35;;;;;;;20.84;67.02;97648.63;4896823;28;20282;-79
2022/05/20 02:45:10;;;;;;;12.77;11.48;;;;;;;20.88;66.58;97654.88;4913343;28;20225;-80
2022/05/20 02:47:36;;;;;;;14.38;12.88;;;;;;;20.84;66.74;97651.28;4913054;28;20257;-80
2022/05/20 02:50:08;;;;;;;14.07;12.63;;;;;;;20.74;66.72;97655.69;4881211;28;20191;-79
2022/05/20 02:52:35;;;;;;;13.93;12.52;;;;;;;20.85;66.60;97663.41;4881377;28;20331;-79
2022/05/20 02:55:02;;;;;;;14.68;12.63;;;;;;;20.87;66.50;97653.31;4896886;28;20481;-79
2022/05/20 02:57:28;;;;;;;11.82;10.43;;;;;;;20.89;66.52;97651.16;4881315;28;20272;-80
2022/05/20 03:05:22;;;;;;;12.55;11.25;;;;;;;20.91;66.08;97638.41;4899312;28;20277;-80
2022/05/20 03:07:48;;;;;;;11.18;10.07;;;;;;;20.89;66.03;97636.06;4895919;28;20193;-79
2022/05/20 03:10:14;;;;;;;9.35;8.45;;;;;;;20.91;65.79;97638.41;4881780;28;20217;-80
2022/05/20 03:12:40;;;;;;;10.43;9.43;;;;;;;20.85;65.79;97637.72;4912519;28;20730;-80
2022/05/20 03:15:08;;;;;;;11.63;10.52;;;;;;;20.71;65.78;97624.53;4912291;28;20280;-80
2022/05/20 03:17:33;;;;;;;10.05;9.05;;;;;;;20.80;65.88;97618.53;4880705;28;20210;-80
2022/05/20 03:19:59;;;;;;;9.95;8.93;;;;;;;20.75;66.18;97606.19;4911206;28;20158;-80
2022/05/20 03:22:24;;;;;;;10.63;9.52;;;;;;;20.72;65.79;97604.16;4894817;28;20648;-80
2022/05/20 03:24:50;;;;;;;10.98;9.88;;;;;;;20.70;65.84;97604.47;4911154;28;20175;-80
2022/05/20 03:27:17;;;;;;;10.50;9.50;;;;;;;20.72;65.62;97604.16;4911085;28;20175;-81
2022/05/20 03:29:43;;;;;;;12.23;9.40;;;;;;;20.70;65.55;97607.09;4911246;28;20297;-81
2022/05/20 03:32:09;;;;;;;9.50;8.45;;;;;;;20.67;65.86;97599.00;4894979;28;20340;-80
2022/05/20 03:34:34;;;;;;;12.68;11.07;;;;;;;20.65;66.16;97601.13;4910406;28;20456;-81
2022/05/20 03:37:00;;;;;;;10.40;9.30;;;;;;;20.65;65.65;97603.78;4911110;28;20232;-80
2022/05/20 03:39:25;;;;;;;10.55;9.45;;;;;;;20.60;65.84;97604.66;4878968;28;20516;-80
2022/05/20 03:41:51;;;;;;;10.38;9.30;;;;;;;20.61;65.81;97600.91;4910855;28;20213;-80
2022/05/20 03:44:17;;;;;;;9.50;8.60;;;;;;;20.63;65.75;97606.75;4918178;28;20221;-81
2022/05/20 03:46:47;;;;;;;13.52;9.90;;;;;;;20.55;65.83;97610.06;4910469;28;20198;-81
2022/05/20 03:49:13;;;;;;;10.48;9.38;;;;;;;20.52;65.73;97592.91;4910291;28;20159;-80
2022/05/20 03:51:39;;;;;;;10.68;8.45;;;;;;;20.55;65.83;97597.63;4910641;28;20210;-80
2022/05/20 03:54:05;;;;;;;9.18;8.27;;;;;;;20.52;65.71;97592.91;4894320;28;20281;-80
2022/05/20 03:56:30;;;;;;;9.00;7.97;;;;;;;20.51;65.59;97590.56;4910496;28;20741;-81
2022/05/20 03:58:59;;;;;;;9.02;8.10;;;;;;;20.45;65.60;97589.13;4894475;28;20179;-80
2022/05/20 04:04:08;;;;;;;7.93;7.22;;;;;;;20.37;65.79;97587.97;4908299;28;20202;-80
2022/05/20 04:06:34;;;;;;;8.30;7.57;;;;;;;20.33;65.82;97593.06;4907293;28;20657;-80
2022/05/20 04:08:59;;;;;;;7.07;6.47;;;;;;;20.40;65.89;97592.66;4907014;28;20333;-81
2022/05/20 04:11:26;;;;;;;8.88;8.00;;;;;;;20.37;65.92;97595.91;4907139;28;20168;-80
2022/05/20 04:13:51;;;;;;;8.30;7.50;;;;;;;20.40;65.85;97595.31;4906715;28;20618;-80
2022/05/20 04:16:19;;;;;;;8.48;7.68;;;;;;;20.32;65.43;97594.16;4906802;28;20239;-80
2022/05/20 04:18:45;;;;;;;8.93;8.02;;;;;;;20.35;66.08;97601.47;4908004;28;20238;-80
2022/05/20 04:21:12;;;;;;;12.95;10.85;;;;;;;20.29;66.81;97600.03;4907222;28;20720;-81
2022/05/20 04:23:37;;;;;;;12.57;11.32;;;;;;;20.30;67.10;97612.16;4906683;28;20715;-81
2022/05/20 04:26:03;;;;;;;12.52;11.35;;;;;;;20.27;66.84;97617.25;4907042;28;20259;-81
2022/05/20 04:28:28;;;;;;;12.43;11.23;;;;;;;20.35;66.76;97617.34;4890505;28;20219;-80
2022/05/20 04:31:00;;;;;;;13.55;11.88;;;;;;;20.23;66.78;97613.66;4890776;28;20207;-80
2022/05/20 04:33:28;;;;;;;18.13;11.73;;;;;;;20.27;66.39;97615.44;4890032;28;20190;-79
2022/05/20 04:35:54;;;;;;;32.90;12.45;;;;;;;20.07;66.56;97618.47;4906452;28;20706;-80
2022/05/20 04:38:19;;;;;;;16.60;11.73;;;;;;;20.11;66.59;97632.66;4874326;28;20305;-79
2022/05/20 04:46:56;;;;;;;35.13;12.68;;;;;;;20.04;66.75;97632.28;4922713;28;20202;-79
2022/05/20 04:48:59;;;;;;;12.15;10.32;;;;;;;20.20;66.80;97646.75;4890129;28;20640;-79
2022/05/20 04:51:24;;;;;;;11.25;10.10;;;;;;;20.19;66.88;97645.97;4874351;28;20297;-79
2022/05/20 04:56:33;;;;;;;12.00;10.43;;;;;;;20.15;67.07;97650.28;4893515;28;20299;-79
2022/05/20 04:59:00;;;;;;;17.17;11.68;;;;;;;20.13;66.63;97649.00;4881741;28;20585;-79
2022/05/20 05:01:25;;;;;;;12.18;10.50;;;;;;;20.09;66.99;97655.97;4922326;28;20253;-80
2022/05/20 05:03:51;;;;;;;16.60;12.98;;;;;;;20.15;67.36;97662.72;4892734;28;20288;-78
2022/05/20 05:06:16;;;;;;;35.72;16.20;;;;;;;19.99;68.27;97663.00;4890105;28;20203;-80
2022/05/20 05:08:41;;;;;;;46.20;17.40;;;;;;;20.08;68.35;97663.09;4890085;28;20249;-79
2022/05/20 05:11:07;;;;;;;80.65;21.92;;;;;;;20.02;68.96;97666.94;4907993;28;20107;-79
2022/05/20 05:13:32;;;;;;;75.50;21.17;;;;;;;20.07;68.81;97663.41;4905544;28;20309;-78
2022/05/20 05:15:57;;;;;;;91.88;21.90;;;;;;;20.15;68.55;97666.16;4890583;28;20199;-79
2022/05/20 05:18:26;;;;;;;32.28;18.48;;;;;;;20.24;68.46;97668.91;4891926;28;20168;-79
2022/05/20 05:20:52;;;;;;;17.10;15.15;;;;;;;20.35;68.09;97659.66;4890507;28;20265;-79
2022/05/20 05:23:19;;;;;;;20.45;17.42;;;;;;;20.44;68.18;97661.63;4889925;28;20372;-79
2022/05/20 05:25:45;;;;;;;18.23;16.13;;;;;;;20.56;68.07;97656.59;4858984;28;20262;-79
2022/05/20 05:28:11;;;;;;;22.17;16.42;;;;;;;20.69;67.80;97653.16;4873860;28;20286;-79
2022/05/20 05:30:36;;;;;;;17.70;15.40;;;;;;;20.73;67.89;97653.34;4907885;28;20261;-80
2022/05/20 05:33:05;;;;;;;19.25;15.90;;;;;;;20.76;67.66;97653.53;4905464;28;20198;-79
2022/05/20 05:35:31;;;;;;;15.27;13.43;;;;;;;20.97;67.22;97658.38;4873930;28;20725;-80
2022/05/20 05:37:57;;;;;;;19.00;15.60;;;;;;;21.01;67.57;97651.41;4893578;28;20254;-79
2022/05/20 05:40:25;;;;;;;16.67;14.43;;;;;;;21.08;67.37;97649.09;4909166;28;20280;-80
2022/05/20 05:42:51;;;;;;;15.73;13.73;;;;;;;21.20;67.17;97648.56;4892926;28;20270;-79
2022/05/20 05:45:21;;;;;;;14.82;13.32;;;;;;;21.22;67.23;97648.28;4909581;28;20336;-80
2022/05/20 05:47:50;;;;;;;13.63;12.00;;;;;;;21.36;67.08;97638.38;4909035;28;20373;-80
2022/05/20 05:50:15;;;;;;;14.75;11.75;;;;;;;21.56;66.93;97653.00;4894030;28;20163;-79
2022/05/20 05:52:41;;;;;;;12.98;11.68;;;;;;;21.66;66.43;97644.81;4893609;28;20587;-80
2022/05/20 05:55:07;;;;;;;12.73;11.43;;;;;;;21.83;66.24;97656.53;4878023;28;20199;-80
2022/05/20 05:57:39;;;;;;;14.48;13.15;;;;;;;21.94;66.31;97652.53;4909980;28;20278;-80
2022/05/20 06:00:05;;;;;;;11.43;10.32;;;;;;;21.99;65.97;97654.28;4906038;28;20191;-80
2022/05/20 06:02:31;;;;;;;12.68;10.88;;;;;;;22.11;65.77;97645.75;4912359;28;20297;-80
2022/05/20 06:04:56;;;;;;;11.85;10.63;;;;;;;22.22;65.97;97647.78;4910006;28;20289;-80
2022/05/20 06:07:21;;;;;;;11.23;10.13;;;;;;;22.35;65.54;97634.75;4910914;28;20313;-79
2022/05/20 06:09:47;;;;;;;11.13;10.02;;;;;;;22.39;65.26;97641.75;4879028;28;20183;-80
2022/05/20 06:12:14;;;;;;;12.18;10.93;;;;;;;22.41;65.26;97628.19;4897032;28;20669;-80
2022/05/20 06:14:40;;;;;;;11.82;10.63;;;;;;;22.58;64.84;97638.81;4897583;28;20300;-80
2022/05/20 06:17:09;;;;;;;11.27;10.10;;;;;;;22.63;65.15;97646.63;4913368;28;20573;-80
2022/05/20 06:19:34;;;;;;;12.10;11.10;;;;;;;22.90;65.04;97647.41;4914921;28;20659;-79
2022/05/20 06:22:00;;;;;;;12.00;10.55;;;;;;;23.13;64.62;97644.59;4913228;28;20201;-80
2022/05/20 06:24:25;;;;;;;11.40;10.40;;;;;;;23.24;64.52;97640.53;4913127;28;20274;-80
2022/05/20 06:26:50;;;;;;;14.13;12.73;;;;;;;23.25;64.00;97642.06;4912873;28;20114;-80
2022/05/20 06:29:16;;;;;;;13.25;11.85;;;;;;;23.35;63.63;97641.75;4896864;28;20286;-81
2022/05/20 06:31:42;;;;;;;12.60;11.40;;;;;;;23.48;63.23;97641.91;4912867;28;20179;-80
2022/05/20 06:34:10;;;;;;;14.98;12.70;;;;;;;23.44;63.40;97630.31;4928776;28;20171;-80
2022/05/20 06:39:49;;;;;;;11.60;10.50;;;;;;;23.80;62.63;97637.84;4899140;28;20785;-80
2022/05/20 06:42:14;;;;;;;12.73;11.63;;;;;;;23.99;62.12;97640.16;4911931;28;20711;-79
2022/05/20 06:44:40;;;;;;;11.13;10.13;;;;;;;24.19;62.28;97646.59;4912678;28;20277;-80
2022/05/20 06:47:05;;;;;;;10.52;9.50;;;;;;;24.35;61.72;97644.19;4897013;28;20191;-79
2022/05/20 06:49:31;;;;;;;9.68;8.68;;;;;;;24.59;60.57;97648.09;4897222;28;20281;-80
2022/05/20 06:51:56;;;;;;;8.63;7.82;;;;;;;24.70;60.12;97641.28;4897583;28;20644;-79
2022/05/20 06:54:23;;;;;;;9.15;8.30;;;;;;;24.88;59.76;97636.59;4912647;28;20208;-79
2022/05/20 06:56:48;;;;;;;9.07;8.27;;;;;;;24.93;59.93;97638.28;4912636;28;20282;-79
2022/05/20 06:59:17;;;;;;;7.47;6.78;;;;;;;25.07;60.21;97632.66;4912742;28;20304;-79
2022/05/20 07:01:42;;;;;;;9.07;7.75;;;;;;;25.25;60.53;97636.72;4896014;28;20206;-80
2022/05/20 07:04:08;;;;;;;7.32;6.50;;;;;;;25.50;58.60;97632.25;4877599;28;20202;-80
2022/05/20 07:06:34;;;;;;;8.02;7.22;;;;;;;25.74;57.08;97628.84;4862171;28;20626;-79
2022/05/20 07:09:04;;;;;;;6.50;5.93;;;;;;;25.80;57.66;97629.38;4893330;28;20195;-81
2022/05/20 07:11:30;;;;;;;7.10;6.22;;;;;;;26.24;54.72;97629.63;4893650;28;20220;-81
2022/05/20 07:13:56;;;;;;;6.45;5.78;;;;;;;26.40;55.89;97624.34;4892895;28;20629;-81
2022/05/20 07:16:23;;;;;;;6.32;5.75;;;;;;;26.47;57.02;97627.22;4877552;28;20211;-83
2022/05/20 07:18:49;;;;;;;6.30;5.80;;;;;;;26.59;53.55;97613.06;4877836;28;20187;-81
2022/05/20 07:21:15;;;;;;;6.35;5.32;;;;;;;26.67;56.64;97614.84;4877253;28;20253;-80
2022/05/20 07:23:40;;;;;;;5.75;5.22;;;;;;;26.85;54.96;97603.88;4905811;28;20107;-81
2022/05/20 07:26:06;;;;;;;6.50;5.55;;;;;;;26.80;54.95;97602.25;4913057;28;20214;-83
2022/05/20 07:28:35;;;;;;;6.20;4.22;;;;;;;27.06;50.73;97604.44;4912619;28;20355;-81
2022/05/20 07:31:00;;;;;;;5.30;4.80;;;;;;;27.13;51.51;97597.72;4912662;28;20186;-82
2022/05/20 07:33:26;;;;;;;6.40;4.63;;;;;;;27.13;50.47;97590.50;4928568;28;20189;-85
2022/05/20 07:35:52;;;;;;;7.10;4.93;;;;;;;27.01;53.52;97598.59;4928399;28;20654;-81
2022/05/20 07:38:17;;;;;;;8.63;4.35;;;;;;;27.10;51.61;97599.97;4915217;28;20275;-84
2022/05/20 07:40:43;;;;;;;6.22;3.90;;;;;;;27.27;51.71;97600.75;4927711;28;20220;-81
2022/05/20 07:43:10;;;;;;;7.15;4.30;;;;;;;27.49;48.93;97602.09;4894482;28;20645;-82
2022/05/20 07:45:35;;;;;;;5.95;5.35;;;;;;;27.52;50.40;97601.41;4896084;28;20211;-82
2022/05/20 07:48:00;;;;;;;5.75;5.13;;;;;;;27.52;52.43;97605.97;4895642;28;20191;-83
2022/05/20 07:50:26;;;;;;;4.80;4.40;;;;;;;27.65;51.40;97596.75;4895983;28;20221;-82
2022/05/20 07:55:43;;;;;;;5.90;4.65;;;;;;;27.75;50.45;97595.44;4909227;28;20199;-84
2022/05/20 07:58:11;;;;;;;5.75;5.00;;;;;;;28.04;50.19;97607.59;4911646;28;20193;-80
2022/05/20 08:00:37;;;;;;;5.97;5.38;;;;;;;28.16;50.75;97607.47;4908298;28;20207;-81
2022/05/20 08:03:03;;;;;;;5.72;4.30;;;;;;;28.38;48.55;97610.63;4906389;28;20156;-82
2022/05/20 08:05:30;;;;;;;5.47;4.97;;;;;;;28.46;48.99;97606.94;4880615;28;20666;-82
2022/05/20 08:08:03;;;;;;;5.00;4.32;;;;;;;28.37;48.46;97601.00;4895972;28;20102;-83
2022/05/20 08:10:31;;;;;;;6.07;4.38;;;;;;;28.76;48.04;97598.38;4875925;28;20641;-81
2022/05/20 08:12:57;;;;;;;4.78;4.03;;;;;;;29.12;47.38;97599.78;4908284;28;20254;-83
2022/05/20 08:15:23;;;;;;;6.32;4.47;;;;;;;29.11;47.83;97590.19;4908235;28;20737;-82
2022/05/20 08:17:49;;;;;;;4.45;4.05;;;;;;;29.44;47.18;97588.06;4900001;28;20135;-84
2022/05/20 08:20:25;;;;;;;4.80;4.13;;;;;;;29.29;47.36;97579.03;4880112;28;20671;-82
2022/05/20 08:22:52;;;;;;;6.78;4.28;;;;;;;29.53;45.14;97585.94;4911237;28;20279;-82
2022/05/20 08:25:17;;;;;;;5.75;4.50;;;;;;;29.53;46.69;97588.63;4909879;28;20668;-82
2022/05/20 08:27:43;;;;;;;5.07;4.25;;;;;;;29.44;44.77;97598.81;4913098;28;20296;-83
2022/05/20 08:30:13;;;;;;;6.45;4.97;;;;;;;29.64;45.70;97586.88;4910567;28;20558;-81
2022/05/20 08:32:41;;;;;;;6.53;4.22;;;;;;;29.86;44.40;97587.22;4894526;28;20676;-82
2022/05/20 08:35:07;;;;;;;4.40;3.83;;;;;;;29.92;43.98;97574.25;4893723;28;20292;-82
2022/05/20 08:37:37;;;;;;;6.53;3.70;;;;;;;29.85;45.73;97596.41;4894799;28;20283;-82
2022/05/20 08:40:03;;;;;;;4.47;4.07;;;;;;;29.99;44.07;97588.56;4910953;28;20205;-82
2022/05/20 08:42:31;;;;;;;4.03;3.67;;;;;;;30.26;42.58;97593.88;4910880;28;20635;-82
2022/05/20 08:44:57;;;;;;;5.38;3.60;;;;;;;30.56;42.09;97598.53;4910965;28;20581;-81
2022/05/20 08:47:36;;;;;;;9.05;3.80;;;;;;;30.24;41.77;97590.78;4902988;28;20277;-81
2022/05/20 08:50:08;;;;;;;8.52;4.38;;;;;;;30.15;44.15;97582.25;4894667;28;20387;-81
2022/05/20 08:52:34;;;;;;;5.57;4.00;;;;;;;30.26;41.58;97580.47;4910692;28;20635;-81
2022/05/20 08:54:59;;;;;;;4.38;3.63;;;;;;;30.69;40.43;97578.31;4910332;28;20190;-81
2022/05/20 08:57:28;;;;;;;9.10;3.78;;;;;;;30.60;41.42;97581.28;4910688;28;20348;-82
2022/05/20 08:59:54;;;;;;;7.05;3.20;;;;;;;30.27;39.18;97581.25;4899187;28;20273;-82
2022/05/20 09:02:21;;;;;;;5.13;3.25;;;;;;;30.39;38.73;97576.44;4903456;28;20238;-81
2022/05/20 09:04:47;;;;;;;3.67;2.83;;;;;;;30.63;39.97;97574.41;4910526;28;20644;-82
2022/05/20 09:07:14;;;;;;;3.50;3.13;;;;;;;30.90;40.30;97572.38;4910303;28;20299;-80
2022/05/20 09:09:43;;;;;;;6.28;3.47;;;;;;;30.95;40.50;97563.25;4878574;28;20372;-81
2022/05/20 09:12:09;;;;;;;5.65;3.22;;;;;;;31.37;39.76;97554.75;4910202;28;20626;-81
2022/05/20 09:17:24;;;;;;;6.83;3.20;;;;;;;31.25;37.43;97541.59;4913369;28;20719;-81
2022/05/20 09:19:55;;;;;;;5.68;2.80;;;;;;;31.52;39.05;97536.81;4911252;28;20514;-80
2022/05/20 09:22:26;;;;;;;5.28;3.03;;;;;;;31.59;37.11;97538.78;4924816;28;20169;-81
2022/05/20 09:24:52;;;;;;;5.95;3.25;;;;;;;31.96;35.80;97540.56;4909743;28;20181;-81
2022/05/20 09:27:20;;;;;;;3.35;3.00;;;;;;;31.70;36.21;97528.09;4879764;28;20639;-81
2022/05/20 09:30:05;;;;;;;7.82;3.17;;;;;;;31.81;35.42;97538.94;4877445;28;20269;-81
2022/05/20 09:32:33;;;;;;;3.92;2.88;;;;;;;31.91;35.70;97540.91;4926134;28;20306;-81
2022/05/20 09:35:03;;;;;;;7.25;3.00;;;;;;;31.59;36.60;97533.41;4927216;28;20277;-81
2022/05/20 09:37:31;;;;;;;7.45;3.28;;;;;;;31.88;37.31;97523.56;4893221;28;20690;-81
2022/05/20 09:39:56;;;;;;;5.80;2.85;;;;;;;32.00;35.20;97524.41;4909658;28;20239;-81
2022/05/20 09:42:28;;;;;;;6.35;3.13;;;;;;;32.10;33.27;97526.41;4894536;28;20213;-81
2022/05/20 09:45:03;;;;;;;4.82;3.22;;;;;;;32.26;35.15;97516.06;4897518;28;20205;-80
2022/05/20 09:47:52;;;;;;;3.92;3.53;;;;;;;32.50;34.08;97507.66;4898000;28;20167;-80
2022/05/20 09:50:27;;;;;;;5.50;3.50;;;;;;;32.08;33.88;97516.00;4897889;28;20679;-78
2022/05/20 09:52:57;;;;;;;5.50;2.90;;;;;;;31.90;35.60;97517.81;4897585;28;20779;-80
2022/05/20 09:55:29;;;;;;;6.88;2.92;;;;;;;32.22;35.89;97522.59;4931074;28;20256;-80
2022/05/20 09:57:57;;;;;;;7.15;3.13;;;;;;;32.61;34.49;97520.06;4913534;28;20205;-79
2022/05/20 10:00:26;;;;;;;4.90;2.75;;;;;;;32.54;34.21;97516.53;4913723;28;20185;-80
2022/05/20 10:03:11;;;;;;;5.75;3.28;;;;;;;32.59;34.66;97525.00;4896824;28;20228;-80
2022/05/20 10:05:54;;;;;;;4.57;3.10;;;;;;;32.66;33.19;97516.19;4893909;28;20195;-80
2022/05/20 10:08:37;;;;;;;5.97;3.70;;;;;;;32.98;33.52;97524.31;4894538;28;20211;-78
2022/05/20 10:11:11;;;;;;;4.38;3.17;;;;;;;33.24;33.56;97530.53;4910941;28;20279;-79
2022/05/20 10:13:36;;;;;;;5.63;3.17;;;;;;;32.70;34.70;97525.06;4862375;28;20272;-79
2022/05/20 10:16:21;;;;;;;5.40;3.05;;;;;;;31.93;35.42;97523.22;4912365;28;20293;-80
2022/05/20 10:19:05;;;;;;;6.13;3.00;;;;;;;31.47;34.73;97518.31;4913754;28;20621;-80
2022/05/20 10:21:43;;;;;;;6.68;3.50;;;;;;;31.37;36.06;97500.94;4912705;28;20224;-80
2022/05/20 10:24:41;;;;;;;5.35;3.05;;;;;;;31.27;37.80;97490.88;4934728;28;20355;-80
2022/05/20 10:27:12;;;;;;;5.55;3.22;;;;;;;30.88;38.00;97472.50;4919860;28;20277;-80
2022/05/20 10:32:54;;;;;;;5.00;2.85;;;;;;;30.32;38.92;97446.63;4915086;28;20429;-80
2022/05/20 10:35:24;;;;;;;5.25;3.10;;;;;;;30.20;39.93;97418.84;4862418;28;20426;-80
2022/05/20 10:38:11;;;;;;;5.47;3.50;;;;;;;29.97;37.79;97405.59;4913563;28;20099;-79
2022/05/20 10:40:49;;;;;;;6.63;3.20;;;;;;;29.78;38.18;97373.53;4929561;28;20170;-80
2022/05/20 10:43:29;;;;;;;6.57;4.05;;;;;;;29.73;37.58;97341.59;4932145;28;20700;-80
2022/05/20 10:49:08;;;;;;;6.80;3.42;;;;;;;30.03;36.39;97355.75;4918908;28;20598;-80
2022/05/20 10:51:55;;;;;;;4.25;2.67;;;;;;;30.20;38.07;97348.25;4949930;28;20166;-79
2022/05/20 10:54:55;;;;;;;6.60;3.67;;;;;;;30.54;37.92;97351.66;4949341;28;20324;-80
2022/05/20 10:57:46;;;;;;;6.38;3.70;;;;;;;31.04;35.73;97345.88;4916327;28;20321;-80
2022/05/20 11:00:47;;;;;;;7.40;3.67;;;;;;;31.61;35.62;97334.59;4949120;28;20163;-80
2022/05/20 11:03:22;;;;;;;5.32;3.10;;;;;;;31.97;34.20;97325.84;4911906;28;20186;-79
2022/05/20 11:05:59;;;;;;;5.15;3.60;;;;;;;32.45;37.61;97328.97;4912573;28;20198;-80
2022/05/20 11:08:40;;;;;;;3.55;3.10;;;;;;;32.57;35.59;97327.81;4931018;28;20691;-80
2022/05/20 11:11:20;;;;;;;5.68;3.22;;;;;;;32.74;35.00;97326.28;4912303;28;20269;-79
2022/05/20 11:14:02;;;;;;;5.85;3.50;;;;;;;32.71;32.51;97324.38;4925202;28;20678;-80
2022/05/20 11:16:55;;;;;;;5.85;3.25;;;;;;;33.01;33.43;97323.94;4928354;28;20232;-79
2022/05/20 11:19:59;;;;;;;3.72;2.90;;;;;;;33.08;34.94;97322.38;4913559;28;20640;-79
2022/05/20 11:22:24;;;;;;;3.78;3.05;;;;;;;33.20;34.76;97324.69;4913206;28;20245;-79
2022/05/20 11:25:05;;;;;;;5.15;3.40;;;;;;;33.17;33.86;97320.06;4928894;28;20209;-79
2022/05/20 11:27:45;;;;;;;5.07;3.00;;;;;;;33.21;33.30;97310.81;4912557;28;20217;-79
2022/05/20 11:30:19;;;;;;;6.07;3.38;;;;;;;33.00;34.05;97306.19;4912012;28;20671;-80
2022/05/20 11:33:29;;;;;;;4.40;3.40;;;;;;;32.84;35.28;97303.16;4928763;28;20212;-80
2022/05/20 11:36:07;;;;;;;4.90;3.08;;;;;;;32.76;34.88;97302.41;4881007;28;20163;-78
2022/05/20 11:39:05;;;;;;;5.18;2.70;;;;;;;32.64;34.55;97306.28;4896410;28;20665;-79
2022/05/20 11:41:42;;;;;;;5.47;3.35;;;;;;;32.45;34.63;97315.50;4926350;28;20778;-79
2022/05/20 11:44:39;;;;;;;6.05;3.25;;;;;;;32.50;31.72;97298.19;4897225;28;20191;-79
2022/05/20 11:47:39;;;;;;;3.90;2.78;;;;;;;32.48;35.56;97297.81;4912030;28;20171;-79
2022/05/20 11:50:31;;;;;;;3.45;3.10;;;;;;;32.48;35.16;97293.19;4912469;28;20205;-79
2022/05/20 11:53:18;;;;;;;4.40;3.20;;;;;;;32.62;33.56;97284.31;4896311;28;20077;-80
2022/05/20 11:56:05;;;;;;;4.38;3.15;;;;;;;33.03;32.18;97288.47;4911434;28;20192;-80
2022/05/20 11:58:39;;;;;;;5.45;3.17;;;;;;;33.53;33.16;97282.13;4913032;28;20252;-80
2022/05/20 12:01:05;;;;;;;4.10;3.30;;;;;;;33.64;32.25;97280.13;4896648;28;20461;-79
2022/05/20 12:04:06;;;;;;;6.50;3.97;;;;;;;33.72;32.49;97289.72;4894907;28;20480;-79
2022/05/20 12:06:22;;;;;;;6.40;3.55;;;;;;;33.77;31.50;97292.00;4898395;28;20225;-79
2022/05/20 12:08:53;;;;;;;5.82;3.28;;;;;;;33.58;32.35;97284.41;4881224;28;20273;-79
2022/05/20 12:11:35;;;;;;;6.95;3.10;;;;;;;33.49;34.55;97276.75;4896153;28;20253;-79
2022/05/20 12:14:08;;;;;;;3.78;3.47;;;;;;;33.60;33.16;97282.06;4895864;28;20179;-78
2022/05/20 12:16:59;;;;;;;3.90;3.05;;;;;;;33.29;32.09;97262.94;4896729;28;20205;-79